This is the latest recevied weather packets stored in our database for station/object F4IEI-10. If no packets are shown the sender has not sent any weather packets the latest 10 day(s).
| Time | Temp. | Humidity | Pressure | Rain* | Wind** | Luminosity | Snow |
|---|---|---|---|---|---|---|---|
| 1777847320 | 12.78° C | 100% | 1012.3 hPa | - | - | - | - |
| 1777846418 | 12.78° C | 100% | 1012.5 hPa | - | - | - | - |
| 1777845518 | 12.78° C | 100% | 1012.3 hPa | - | - | - | - |
| 1777844618 | 12.78° C | 98% | 1012.3 hPa | - | - | - | - |
| 1777843718 | 12.78° C | 91% | 1012.3 hPa | - | - | - | - |
| 1777842818 | 13.33° C | 91% | 1012.2 hPa | - | - | - | - |
| 1777841918 | 13.33° C | 100% | 1012.1 hPa | - | - | - | - |
| 1777841019 | 13.89° C | 100% | 1011.9 hPa | - | - | - | - |
| 1777840118 | 14.44° C | 100% | 1011.6 hPa | - | - | - | - |
| 1777839218 | 14.44° C | 95% | 1011.5 hPa | - | - | - | - |
| 1777838325 | 14.44° C | 100% | 1011.5 hPa | - | - | - | - |
| 1777837418 | 15° C | 100% | 1011.4 hPa | - | - | - | - |
| 1777836518 | 15° C | 100% | 1011.2 hPa | - | - | - | - |
| 1777835626 | 15° C | 100% | 1011.2 hPa | - | - | - | - |
| 1777834718 | 15.56° C | 93% | 1010.8 hPa | - | - | - | - |
| 1777833818 | 16.11° C | 89% | 1010.6 hPa | - | - | - | - |
| 1777832918 | 16.11° C | 100% | 1010.6 hPa | - | - | - | - |
| 1777831118 | 18.33° C | 86% | 1010.3 hPa | - | - | - | - |
| 1777830218 | 18.89° C | 83% | 1010.3 hPa | - | - | - | - |
| 1777829318 | 19.44° C | 80% | 1010.4 hPa | - | - | - | - |
| 1777828418 | 20.56° C | 77% | 1010.3 hPa | - | - | - | - |
| 1777827518 | 21.11° C | 85% | 1010.2 hPa | - | - | - | - |
| 1777826618 | 20.56° C | 91% | 1010.3 hPa | - | - | - | - |
| 1777825725 | 20° C | 86% | 1010.4 hPa | - | - | - | - |
| 1777824818 | 18.33° C | 88% | 1010.4 hPa | - | - | - | - |
* Rain since midnight (hover to see other rain measurements)
** Current wind speed in m/s (hover to see current wind gust speed)